sensor_id;sensor_type;location;lat;lon;timestamp;temperature;humidity
49829;DHT22;35723;51.194;5.112;2023-07-13T00:01:19;20.60;99.90
49829;DHT22;35723;51.194;5.112;2023-07-13T00:03:48;20.60;99.90
49829;DHT22;35723;51.194;5.112;2023-07-13T00:06:13;20.60;99.90
49829;DHT22;35723;51.194;5.112;2023-07-13T00:08:39;20.50;99.90
49829;DHT22;35723;51.194;5.112;2023-07-13T00:11:05;20.50;99.90
49829;DHT22;35723;51.194;5.112;2023-07-13T00:13:32;20.50;99.90
49829;DHT22;35723;51.194;5.112;2023-07-13T00:15:58;20.50;99.90
49829;DHT22;35723;51.194;5.112;2023-07-13T00:18:24;20.30;99.90
49829;DHT22;35723;51.194;5.112;2023-07-13T00:20:50;20.30;99.90
49829;DHT22;35723;51.194;5.112;2023-07-13T00:23:16;20.40;99.90
49829;DHT22;35723;51.194;5.112;2023-07-13T00:25:42;20.40;99.90
49829;DHT22;35723;51.194;5.112;2023-07-13T00:28:08;20.40;99.90
49829;DHT22;35723;51.194;5.112;2023-07-13T00:30:34;20.40;99.90
49829;DHT22;35723;51.194;5.112;2023-07-13T00:33:00;20.40;99.90
49829;DHT22;35723;51.194;5.112;2023-07-13T00:35:27;20.40;99.90
49829;DHT22;35723;51.194;5.112;2023-07-13T00:37:55;20.30;99.90
49829;DHT22;35723;51.194;5.112;2023-07-13T00:40:21;20.30;99.90
49829;DHT22;35723;51.194;5.112;2023-07-13T00:42:47;20.30;99.90
49829;DHT22;35723;51.194;5.112;2023-07-13T00:47:39;20.20;99.90
49829;DHT22;35723;51.194;5.112;2023-07-13T00:50:08;20.20;99.90
49829;DHT22;35723;51.194;5.112;2023-07-13T00:52:37;20.20;99.90
49829;DHT22;35723;51.194;5.112;2023-07-13T00:55:04;20.10;99.90
49829;DHT22;35723;51.194;5.112;2023-07-13T00:57:30;20.10;99.90
49829;DHT22;35723;51.194;5.112;2023-07-13T00:59:59;20.10;99.90
49829;DHT22;35723;51.194;5.112;2023-07-13T01:02:33;20.10;99.90
49829;DHT22;35723;51.194;5.112;2023-07-13T01:04:59;20.10;99.90
49829;DHT22;35723;51.194;5.112;2023-07-13T01:07:26;20.00;99.90
49829;DHT22;35723;51.194;5.112;2023-07-13T01:09:52;20.00;99.90
49829;DHT22;35723;51.194;5.112;2023-07-13T01:12:18;20.00;99.90
49829;DHT22;35723;51.194;5.112;2023-07-13T01:14:43;20.00;99.90
49829;DHT22;35723;51.194;5.112;2023-07-13T01:17:10;20.00;99.90
49829;DHT22;35723;51.194;5.112;2023-07-13T01:19:39;20.00;99.90
49829;DHT22;35723;51.194;5.112;2023-07-13T01:22:11;19.90;99.90
49829;DHT22;35723;51.194;5.112;2023-07-13T01:24:39;19.90;99.90
49829;DHT22;35723;51.194;5.112;2023-07-13T01:27:06;19.90;99.90
49829;DHT22;35723;51.194;5.112;2023-07-13T01:29:34;19.80;99.90
49829;DHT22;35723;51.194;5.112;2023-07-13T01:32:00;19.80;99.90
49829;DHT22;35723;51.194;5.112;2023-07-13T01:34:27;19.90;99.90
49829;DHT22;35723;51.194;5.112;2023-07-13T01:36:53;19.80;99.90
49829;DHT22;35723;51.194;5.112;2023-07-13T01:39:23;19.80;99.90
49829;DHT22;35723;51.194;5.112;2023-07-13T01:41:49;19.80;99.90
49829;DHT22;35723;51.194;5.112;2023-07-13T01:44:14;19.80;99.90
49829;DHT22;35723;51.194;5.112;2023-07-13T01:46:40;19.80;99.90
49829;DHT22;35723;51.194;5.112;2023-07-13T01:49:06;19.80;99.90
49829;DHT22;35723;51.194;5.112;2023-07-13T01:51:31;19.80;99.90
49829;DHT22;35723;51.194;5.112;2023-07-13T01:53:57;19.70;99.90
49829;DHT22;35723;51.194;5.112;2023-07-13T01:56:23;19.70;99.90
49829;DHT22;35723;51.194;5.112;2023-07-13T01:58:48;19.70;99.90
49829;DHT22;35723;51.194;5.112;2023-07-13T02:01:14;19.70;99.90
49829;DHT22;35723;51.194;5.112;2023-07-13T02:03:40;19.70;99.90
49829;DHT22;35723;51.194;5.112;2023-07-13T02:06:06;19.60;99.90
49829;DHT22;35723;51.194;5.112;2023-07-13T02:08:32;19.60;99.90
49829;DHT22;35723;51.194;5.112;2023-07-13T02:10:58;19.50;99.90
49829;DHT22;35723;51.194;5.112;2023-07-13T02:13:24;19.50;99.90
49829;DHT22;35723;51.194;5.112;2023-07-13T02:15:52;19.60;99.90
49829;DHT22;35723;51.194;5.112;2023-07-13T02:18:18;19.50;99.90
49829;DHT22;35723;51.194;5.112;2023-07-13T02:20:44;19.50;99.90
49829;DHT22;35723;51.194;5.112;2023-07-13T02:23:10;19.50;99.90
49829;DHT22;35723;51.194;5.112;2023-07-13T02:25:36;19.50;99.90
49829;DHT22;35723;51.194;5.112;2023-07-13T02:28:02;19.50;99.90
49829;DHT22;35723;51.194;5.112;2023-07-13T02:30:27;19.40;99.90
49829;DHT22;35723;51.194;5.112;2023-07-13T02:32:55;19.40;99.90
49829;DHT22;35723;51.194;5.112;2023-07-13T02:35:21;19.40;99.90
49829;DHT22;35723;51.194;5.112;2023-07-13T02:37:47;19.40;99.90
49829;DHT22;35723;51.194;5.112;2023-07-13T02:40:13;19.40;99.90
49829;DHT22;35723;51.194;5.112;2023-07-13T02:42:39;19.40;99.90
49829;DHT22;35723;51.194;5.112;2023-07-13T02:45:06;19.30;99.90
49829;DHT22;35723;51.194;5.112;2023-07-13T02:47:33;19.30;99.90
49829;DHT22;35723;51.194;5.112;2023-07-13T02:49:59;19.30;99.90
49829;DHT22;35723;51.194;5.112;2023-07-13T02:52:25;19.30;99.90
49829;DHT22;35723;51.194;5.112;2023-07-13T02:54:51;19.20;99.90
49829;DHT22;35723;51.194;5.112;2023-07-13T02:57:16;19.10;99.90
49829;DHT22;35723;51.194;5.112;2023-07-13T02:59:42;19.20;99.90
49829;DHT22;35723;51.194;5.112;2023-07-13T03:02:08;19.20;99.90
49829;DHT22;35723;51.194;5.112;2023-07-13T03:04:36;19.20;99.90
49829;DHT22;35723;51.194;5.112;2023-07-13T03:07:02;19.20;99.90
49829;DHT22;35723;51.194;5.112;2023-07-13T03:09:28;19.20;99.90
49829;DHT22;35723;51.194;5.112;2023-07-13T03:11:55;19.10;99.90
49829;DHT22;35723;51.194;5.112;2023-07-13T03:14:22;19.30;99.90
49829;DHT22;35723;51.194;5.112;2023-07-13T03:16:48;19.30;99.90
49829;DHT22;35723;51.194;5.112;2023-07-13T03:19:14;19.30;99.90
49829;DHT22;35723;51.194;5.112;2023-07-13T03:21:39;19.30;99.90
49829;DHT22;35723;51.194;5.112;2023-07-13T03:24:05;19.20;99.90
49829;DHT22;35723;51.194;5.112;2023-07-13T03:26:31;19.20;99.90
49829;DHT22;35723;51.194;5.112;2023-07-13T03:28:57;19.30;99.90
49829;DHT22;35723;51.194;5.112;2023-07-13T03:31:28;19.30;99.90
49829;DHT22;35723;51.194;5.112;2023-07-13T03:33:55;19.40;99.90
49829;DHT22;35723;51.194;5.112;2023-07-13T03:36:24;19.40;99.90
49829;DHT22;35723;51.194;5.112;2023-07-13T03:38:53;19.40;99.90
49829;DHT22;35723;51.194;5.112;2023-07-13T03:41:19;19.40;99.90
49829;DHT22;35723;51.194;5.112;2023-07-13T03:43:45;19.50;99.90
49829;DHT22;35723;51.194;5.112;2023-07-13T03:46:13;19.50;99.90
49829;DHT22;35723;51.194;5.112;2023-07-13T03:48:38;19.60;99.90
49829;DHT22;35723;51.194;5.112;2023-07-13T03:51:06;19.40;99.90
49829;DHT22;35723;51.194;5.112;2023-07-13T03:53:31;19.40;99.90
49829;DHT22;35723;51.194;5.112;2023-07-13T03:55:57;19.50;99.90
49829;DHT22;35723;51.194;5.112;2023-07-13T03:58:34;19.50;99.90
49829;DHT22;35723;51.194;5.112;2023-07-13T04:01:02;19.40;99.90
49829;DHT22;35723;51.194;5.112;2023-07-13T04:03:29;19.40;99.90
49829;DHT22;35723;51.194;5.112;2023-07-13T04:05:58;19.50;99.90
49829;DHT22;35723;51.194;5.112;2023-07-13T04:08:35;19.50;99.90
49829;DHT22;35723;51.194;5.112;2023-07-13T04:11:02;19.60;99.90
49829;DHT22;35723;51.194;5.112;2023-07-13T04:13:28;19.60;99.90
49829;DHT22;35723;51.194;5.112;2023-07-13T04:15:54;19.50;99.90
49829;DHT22;35723;51.194;5.112;2023-07-13T04:18:20;19.50;99.90
49829;DHT22;35723;51.194;5.112;2023-07-13T04:20:47;19.70;99.90
49829;DHT22;35723;51.194;5.112;2023-07-13T04:23:13;19.60;99.90
49829;DHT22;35723;51.194;5.112;2023-07-13T04:25:42;19.50;99.90
49829;DHT22;35723;51.194;5.112;2023-07-13T04:28:08;19.50;99.90
49829;DHT22;35723;51.194;5.112;2023-07-13T04:30:34;19.60;99.90
49829;DHT22;35723;51.194;5.112;2023-07-13T04:33:00;19.60;99.90
49829;DHT22;35723;51.194;5.112;2023-07-13T04:35:25;19.50;99.90
49829;DHT22;35723;51.194;5.112;2023-07-13T04:37:51;19.60;99.90
49829;DHT22;35723;51.194;5.112;2023-07-13T04:40:17;19.50;99.90
49829;DHT22;35723;51.194;5.112;2023-07-13T04:42:44;19.50;99.90
49829;DHT22;35723;51.194;5.112;2023-07-13T04:45:11;19.50;99.90
49829;DHT22;35723;51.194;5.112;2023-07-13T04:47:37;19.60;99.90
49829;DHT22;35723;51.194;5.112;2023-07-13T04:50:03;19.60;99.90
49829;DHT22;35723;51.194;5.112;2023-07-13T04:52:30;19.60;99.90
49829;DHT22;35723;51.194;5.112;2023-07-13T04:54:55;19.60;99.90
49829;DHT22;35723;51.194;5.112;2023-07-13T04:57:21;19.50;99.90
49829;DHT22;35723;51.194;5.112;2023-07-13T04:59:47;19.40;99.90
49829;DHT22;35723;51.194;5.112;2023-07-13T05:02:12;19.40;99.90
49829;DHT22;35723;51.194;5.112;2023-07-13T05:04:38;19.40;99.90
49829;DHT22;35723;51.194;5.112;2023-07-13T05:07:05;19.50;99.90
49829;DHT22;35723;51.194;5.112;2023-07-13T05:09:32;19.50;99.90
49829;DHT22;35723;51.194;5.112;2023-07-13T05:11:57;19.60;99.90
49829;DHT22;35723;51.194;5.112;2023-07-13T05:14:23;19.60;99.90
49829;DHT22;35723;51.194;5.112;2023-07-13T05:16:48;19.60;99.90
49829;DHT22;35723;51.194;5.112;2023-07-13T05:19:14;19.60;99.90
49829;DHT22;35723;51.194;5.112;2023-07-13T05:21:40;19.60;99.90
49829;DHT22;35723;51.194;5.112;2023-07-13T05:24:06;19.60;99.90
49829;DHT22;35723;51.194;5.112;2023-07-13T05:26:32;19.60;99.90
49829;DHT22;35723;51.194;5.112;2023-07-13T05:28:58;19.60;99.90
49829;DHT22;35723;51.194;5.112;2023-07-13T05:31:24;19.60;99.90
49829;DHT22;35723;51.194;5.112;2023-07-13T05:33:49;19.50;99.90
49829;DHT22;35723;51.194;5.112;2023-07-13T05:36:15;19.60;99.90
49829;DHT22;35723;51.194;5.112;2023-07-13T05:38:41;19.50;99.90
49829;DHT22;35723;51.194;5.112;2023-07-13T05:41:06;19.50;99.90
49829;DHT22;35723;51.194;5.112;2023-07-13T05:43:33;19.50;99.90
49829;DHT22;35723;51.194;5.112;2023-07-13T05:45:58;19.50;99.90
49829;DHT22;35723;51.194;5.112;2023-07-13T05:48:24;19.50;99.90
49829;DHT22;35723;51.194;5.112;2023-07-13T05:50:50;19.60;99.90
49829;DHT22;35723;51.194;5.112;2023-07-13T05:53:15;19.70;99.90
49829;DHT22;35723;51.194;5.112;2023-07-13T05:55:43;19.70;99.90
49829;DHT22;35723;51.194;5.112;2023-07-13T05:58:09;19.70;99.90
49829;DHT22;35723;51.194;5.112;2023-07-13T06:00:35;19.50;99.90
49829;DHT22;35723;51.194;5.112;2023-07-13T06:03:00;19.60;99.90
49829;DHT22;35723;51.194;5.112;2023-07-13T06:05:26;19.60;99.90
49829;DHT22;35723;51.194;5.112;2023-07-13T06:07:54;19.60;99.90
49829;DHT22;35723;51.194;5.112;2023-07-13T06:10:20;19.70;99.90
49829;DHT22;35723;51.194;5.112;2023-07-13T06:12:46;19.60;99.90
49829;DHT22;35723;51.194;5.112;2023-07-13T06:15:12;19.60;99.90
49829;DHT22;35723;51.194;5.112;2023-07-13T06:17:37;19.60;99.90
49829;DHT22;35723;51.194;5.112;2023-07-13T06:20:03;19.60;99.90
49829;DHT22;35723;51.194;5.112;2023-07-13T06:22:29;19.60;99.90
49829;DHT22;35723;51.194;5.112;2023-07-13T06:24:54;19.70;99.90
49829;DHT22;35723;51.194;5.112;2023-07-13T06:27:20;19.60;99.90
49829;DHT22;35723;51.194;5.112;2023-07-13T06:29:46;19.60;99.90
49829;DHT22;35723;51.194;5.112;2023-07-13T06:32:11;19.70;99.90
49829;DHT22;35723;51.194;5.112;2023-07-13T06:34:37;19.70;99.90
49829;DHT22;35723;51.194;5.112;2023-07-13T06:37:03;19.60;99.90
49829;DHT22;35723;51.194;5.112;2023-07-13T06:39:28;19.60;99.90
49829;DHT22;35723;51.194;5.112;2023-07-13T06:41:54;19.60;99.90
49829;DHT22;35723;51.194;5.112;2023-07-13T06:44:20;19.70;99.90
49829;DHT22;35723;51.194;5.112;2023-07-13T06:46:45;19.70;99.90
49829;DHT22;35723;51.194;5.112;2023-07-13T06:49:11;19.80;99.90
49829;DHT22;35723;51.194;5.112;2023-07-13T06:51:37;19.80;99.90
49829;DHT22;35723;51.194;5.112;2023-07-13T06:54:03;19.80;99.90
49829;DHT22;35723;51.194;5.112;2023-07-13T06:56:29;19.80;99.90
49829;DHT22;35723;51.194;5.112;2023-07-13T06:58:54;19.80;99.90
49829;DHT22;35723;51.194;5.112;2023-07-13T07:01:20;19.80;99.90
49829;DHT22;35723;51.194;5.112;2023-07-13T07:03:46;19.80;99.90
49829;DHT22;35723;51.194;5.112;2023-07-13T07:06:16;19.90;99.90
49829;DHT22;35723;51.194;5.112;2023-07-13T07:08:42;20.00;99.90
49829;DHT22;35723;51.194;5.112;2023-07-13T07:11:11;20.00;99.90
49829;DHT22;35723;51.194;5.112;2023-07-13T07:13:36;20.10;99.90
49829;DHT22;35723;51.194;5.112;2023-07-13T07:16:02;20.10;99.90
49829;DHT22;35723;51.194;5.112;2023-07-13T07:18:28;20.20;99.90
49829;DHT22;35723;51.194;5.112;2023-07-13T07:20:53;20.20;99.90
49829;DHT22;35723;51.194;5.112;2023-07-13T07:23:19;20.20;99.90
49829;DHT22;35723;51.194;5.112;2023-07-13T07:25:45;20.20;99.90
49829;DHT22;35723;51.194;5.112;2023-07-13T07:28:12;20.30;99.90
49829;DHT22;35723;51.194;5.112;2023-07-13T07:30:42;20.30;99.90
49829;DHT22;35723;51.194;5.112;2023-07-13T07:33:08;20.40;99.90
49829;DHT22;35723;51.194;5.112;2023-07-13T07:35:34;20.40;99.90
49829;DHT22;35723;51.194;5.112;2023-07-13T07:38:00;20.30;99.90
49829;DHT22;35723;51.194;5.112;2023-07-13T07:40:25;20.30;99.90
49829;DHT22;35723;51.194;5.112;2023-07-13T07:42:51;20.40;99.90
49829;DHT22;35723;51.194;5.112;2023-07-13T07:45:17;20.40;99.90
49829;DHT22;35723;51.194;5.112;2023-07-13T07:47:43;20.40;99.90
49829;DHT22;35723;51.194;5.112;2023-07-13T07:50:09;20.40;99.90
49829;DHT22;35723;51.194;5.112;2023-07-13T07:52:35;20.40;99.90
49829;DHT22;35723;51.194;5.112;2023-07-13T07:55:01;20.40;99.90
49829;DHT22;35723;51.194;5.112;2023-07-13T07:57:27;20.40;99.90
49829;DHT22;35723;51.194;5.112;2023-07-13T07:59:52;20.50;99.90
49829;DHT22;35723;51.194;5.112;2023-07-13T08:02:18;20.60;99.90
49829;DHT22;35723;51.194;5.112;2023-07-13T08:04:43;20.70;99.90
49829;DHT22;35723;51.194;5.112;2023-07-13T08:07:09;20.80;99.90
49829;DHT22;35723;51.194;5.112;2023-07-13T08:09:35;20.80;99.90
49829;DHT22;35723;51.194;5.112;2023-07-13T08:12:00;20.80;99.90
49829;DHT22;35723;51.194;5.112;2023-07-13T08:14:26;20.80;99.90
49829;DHT22;35723;51.194;5.112;2023-07-13T08:16:52;20.90;99.90
49829;DHT22;35723;51.194;5.112;2023-07-13T08:19:19;21.00;99.90
49829;DHT22;35723;51.194;5.112;2023-07-13T08:21:44;21.00;99.90
49829;DHT22;35723;51.194;5.112;2023-07-13T08:24:10;21.00;99.90
49829;DHT22;35723;51.194;5.112;2023-07-13T08:26:36;21.00;99.90
49829;DHT22;35723;51.194;5.112;2023-07-13T08:29:02;21.00;99.90
49829;DHT22;35723;51.194;5.112;2023-07-13T08:31:28;21.00;99.90
49829;DHT22;35723;51.194;5.112;2023-07-13T08:33:54;21.10;99.90
49829;DHT22;35723;51.194;5.112;2023-07-13T08:36:20;21.20;99.90
49829;DHT22;35723;51.194;5.112;2023-07-13T08:38:45;21.20;99.90
49829;DHT22;35723;51.194;5.112;2023-07-13T08:41:17;21.30;99.90
49829;DHT22;35723;51.194;5.112;2023-07-13T08:43:50;21.40;99.90
49829;DHT22;35723;51.194;5.112;2023-07-13T08:46:37;21.50;99.90
49829;DHT22;35723;51.194;5.112;2023-07-13T08:49:09;21.60;99.90
49829;DHT22;35723;51.194;5.112;2023-07-13T08:52:03;21.60;99.90
49829;DHT22;35723;51.194;5.112;2023-07-13T08:54:39;21.70;99.90
49829;DHT22;35723;51.194;5.112;2023-07-13T08:57:21;21.70;99.90
49829;DHT22;35723;51.194;5.112;2023-07-13T08:59:50;21.90;99.90
49829;DHT22;35723;51.194;5.112;2023-07-13T09:02:26;21.90;99.90
49829;DHT22;35723;51.194;5.112;2023-07-13T09:05:30;22.00;99.90
49829;DHT22;35723;51.194;5.112;2023-07-13T09:10:53;22.10;99.90
49829;DHT22;35723;51.194;5.112;2023-07-13T09:13:28;22.10;99.90
49829;DHT22;35723;51.194;5.112;2023-07-13T09:15:59;22.10;99.90
49829;DHT22;35723;51.194;5.112;2023-07-13T09:18:38;22.20;99.90
49829;DHT22;35723;51.194;5.112;2023-07-13T09:21:13;22.20;99.90
49829;DHT22;35723;51.194;5.112;2023-07-13T09:23:40;22.30;99.90
49829;DHT22;35723;51.194;5.112;2023-07-13T09:26:14;22.30;99.90
49829;DHT22;35723;51.194;5.112;2023-07-13T09:28:47;22.40;99.90
49829;DHT22;35723;51.194;5.112;2023-07-13T09:31:42;22.30;99.90
49829;DHT22;35723;51.194;5.112;2023-07-13T09:34:09;22.30;99.90
49829;DHT22;35723;51.194;5.112;2023-07-13T09:36:35;22.40;99.90
49829;DHT22;35723;51.194;5.112;2023-07-13T09:39:12;22.40;99.90
49829;DHT22;35723;51.194;5.112;2023-07-13T09:41:54;22.40;99.90
49829;DHT22;35723;51.194;5.112;2023-07-13T09:44:38;22.50;99.90
49829;DHT22;35723;51.194;5.112;2023-07-13T09:47:19;22.50;99.90
49829;DHT22;35723;51.194;5.112;2023-07-13T09:49:45;22.60;99.90
49829;DHT22;35723;51.194;5.112;2023-07-13T09:52:14;22.50;99.90
49829;DHT22;35723;51.194;5.112;2023-07-13T09:54:45;22.50;99.90
49829;DHT22;35723;51.194;5.112;2023-07-13T09:57:24;22.60;99.90
49829;DHT22;35723;51.194;5.112;2023-07-13T09:59:52;22.60;99.90
49829;DHT22;35723;51.194;5.112;2023-07-13T10:02:39;22.70;99.90
49829;DHT22;35723;51.194;5.112;2023-07-13T10:05:07;22.70;99.90
49829;DHT22;35723;51.194;5.112;2023-07-13T10:07:42;22.70;99.90
49829;DHT22;35723;51.194;5.112;2023-07-13T10:10:18;22.70;99.90
49829;DHT22;35723;51.194;5.112;2023-07-13T10:12:45;22.70;99.90
49829;DHT22;35723;51.194;5.112;2023-07-13T10:15:17;22.70;99.90
49829;DHT22;35723;51.194;5.112;2023-07-13T10:17:44;22.70;99.90
49829;DHT22;35723;51.194;5.112;2023-07-13T10:20:09;22.60;99.90
49829;DHT22;35723;51.194;5.112;2023-07-13T10:22:59;22.60;99.90
49829;DHT22;35723;51.194;5.112;2023-07-13T10:25:38;22.60;99.90
49829;DHT22;35723;51.194;5.112;2023-07-13T10:28:26;22.60;99.90
49829;DHT22;35723;51.194;5.112;2023-07-13T10:30:53;22.60;99.90
49829;DHT22;35723;51.194;5.112;2023-07-13T10:33:21;22.60;99.90
49829;DHT22;35723;51.194;5.112;2023-07-13T10:35:50;22.50;99.90
49829;DHT22;35723;51.194;5.112;2023-07-13T10:38:22;22.60;99.90
49829;DHT22;35723;51.194;5.112;2023-07-13T10:41:03;22.70;99.90
49829;DHT22;35723;51.194;5.112;2023-07-13T10:43:43;22.80;99.90
49829;DHT22;35723;51.194;5.112;2023-07-13T10:46:15;22.80;99.90
49829;DHT22;35723;51.194;5.112;2023-07-13T10:48:43;22.90;99.90
49829;DHT22;35723;51.194;5.112;2023-07-13T10:51:12;22.90;99.90
49829;DHT22;35723;51.194;5.112;2023-07-13T10:53:39;22.90;99.90
49829;DHT22;35723;51.194;5.112;2023-07-13T10:58:42;22.80;99.90
49829;DHT22;35723;51.194;5.112;2023-07-13T11:03:53;22.80;99.90
49829;DHT22;35723;51.194;5.112;2023-07-13T11:09:30;22.90;99.90
49829;DHT22;35723;51.194;5.112;2023-07-13T11:12:03;22.80;99.90
49829;DHT22;35723;51.194;5.112;2023-07-13T11:22:49;22.50;99.90
49829;DHT22;35723;51.194;5.112;2023-07-13T11:33:20;22.30;99.90
49829;DHT22;35723;51.194;5.112;2023-07-13T11:35:53;22.40;99.90
49829;DHT22;35723;51.194;5.112;2023-07-13T11:38:36;22.30;99.90
49829;DHT22;35723;51.194;5.112;2023-07-13T11:41:26;22.30;99.90
49829;DHT22;35723;51.194;5.112;2023-07-13T11:43:55;22.40;99.90
49829;DHT22;35723;51.194;5.112;2023-07-13T11:46:24;22.50;99.90
49829;DHT22;35723;51.194;5.112;2023-07-13T11:48:51;22.50;99.90
49829;DHT22;35723;51.194;5.112;2023-07-13T11:51:29;22.60;99.90
49829;DHT22;35723;51.194;5.112;2023-07-13T11:54:23;22.60;99.90
49829;DHT22;35723;51.194;5.112;2023-07-13T11:56:48;22.50;99.90
49829;DHT22;35723;51.194;5.112;2023-07-13T11:59:15;22.60;99.90
49829;DHT22;35723;51.194;5.112;2023-07-13T12:01:47;22.60;99.90
49829;DHT22;35723;51.194;5.112;2023-07-13T12:04:26;22.60;99.90
49829;DHT22;35723;51.194;5.112;2023-07-13T12:07:16;22.60;99.90
49829;DHT22;35723;51.194;5.112;2023-07-13T12:09:42;22.60;99.90
49829;DHT22;35723;51.194;5.112;2023-07-13T12:12:13;22.60;99.90
49829;DHT22;35723;51.194;5.112;2023-07-13T12:14:39;22.60;99.90
49829;DHT22;35723;51.194;5.112;2023-07-13T12:17:20;22.50;99.90
49829;DHT22;35723;51.194;5.112;2023-07-13T12:19:48;22.60;99.90
49829;DHT22;35723;51.194;5.112;2023-07-13T12:22:15;22.50;99.90
49829;DHT22;35723;51.194;5.112;2023-07-13T12:24:42;22.50;99.90
49829;DHT22;35723;51.194;5.112;2023-07-13T12:27:25;22.60;99.90
49829;DHT22;35723;51.194;5.112;2023-07-13T12:30:03;22.60;99.90
49829;DHT22;35723;51.194;5.112;2023-07-13T12:32:31;22.50;99.90
49829;DHT22;35723;51.194;5.112;2023-07-13T12:35:14;22.50;99.90
49829;DHT22;35723;51.194;5.112;2023-07-13T12:37:45;22.50;99.90
49829;DHT22;35723;51.194;5.112;2023-07-13T12:40:19;22.50;99.90
49829;DHT22;35723;51.194;5.112;2023-07-13T12:42:48;22.50;99.90
49829;DHT22;35723;51.194;5.112;2023-07-13T12:45:26;22.40;99.90
49829;DHT22;35723;51.194;5.112;2023-07-13T12:48:05;22.40;99.90
49829;DHT22;35723;51.194;5.112;2023-07-13T12:50:41;22.30;99.90
49829;DHT22;35723;51.194;5.112;2023-07-13T12:53:16;22.30;99.90
49829;DHT22;35723;51.194;5.112;2023-07-13T12:55:55;22.30;99.90
49829;DHT22;35723;51.194;5.112;2023-07-13T12:58:30;22.20;99.90
49829;DHT22;35723;51.194;5.112;2023-07-13T13:00:59;22.20;99.90
49829;DHT22;35723;51.194;5.112;2023-07-13T13:03:34;22.10;99.90
49829;DHT22;35723;51.194;5.112;2023-07-13T13:06:02;22.20;99.90
49829;DHT22;35723;51.194;5.112;2023-07-13T13:08:33;22.10;99.90
49829;DHT22;35723;51.194;5.112;2023-07-13T13:10:59;22.10;99.90
49829;DHT22;35723;51.194;5.112;2023-07-13T13:13:25;22.00;99.90
49829;DHT22;35723;51.194;5.112;2023-07-13T13:15:51;21.90;99.90
49829;DHT22;35723;51.194;5.112;2023-07-13T13:18:19;21.70;99.90
49829;DHT22;35723;51.194;5.112;2023-07-13T13:20:46;21.60;99.90
49829;DHT22;35723;51.194;5.112;2023-07-13T13:23:18;21.50;99.90
49829;DHT22;35723;51.194;5.112;2023-07-13T13:25:48;21.60;99.90
49829;DHT22;35723;51.194;5.112;2023-07-13T13:28:17;21.50;99.90
49829;DHT22;35723;51.194;5.112;2023-07-13T13:30:44;21.50;99.90
49829;DHT22;35723;51.194;5.112;2023-07-13T13:33:12;21.40;99.90
49829;DHT22;35723;51.194;5.112;2023-07-13T13:35:38;21.40;99.90
49829;DHT22;35723;51.194;5.112;2023-07-13T13:38:15;21.30;99.90
49829;DHT22;35723;51.194;5.112;2023-07-13T13:40:42;21.20;99.90
49829;DHT22;35723;51.194;5.112;2023-07-13T13:43:15;21.20;99.90
49829;DHT22;35723;51.194;5.112;2023-07-13T13:45:44;21.20;99.90
49829;DHT22;35723;51.194;5.112;2023-07-13T13:48:18;21.20;99.90
49829;DHT22;35723;51.194;5.112;2023-07-13T13:50:45;21.10;99.90
49829;DHT22;35723;51.194;5.112;2023-07-13T13:53:12;21.10;99.90
49829;DHT22;35723;51.194;5.112;2023-07-13T13:55:39;21.20;99.90
49829;DHT22;35723;51.194;5.112;2023-07-13T13:58:07;21.10;99.90
49829;DHT22;35723;51.194;5.112;2023-07-13T14:00:33;21.10;99.90
49829;DHT22;35723;51.194;5.112;2023-07-13T14:02:59;21.20;99.90
49829;DHT22;35723;51.194;5.112;2023-07-13T14:05:25;21.20;99.90
49829;DHT22;35723;51.194;5.112;2023-07-13T14:07:52;21.20;99.90
49829;DHT22;35723;51.194;5.112;2023-07-13T14:10:19;21.20;99.90
49829;DHT22;35723;51.194;5.112;2023-07-13T14:12:53;21.20;99.90
49829;DHT22;35723;51.194;5.112;2023-07-13T14:15:29;21.30;99.90
49829;DHT22;35723;51.194;5.112;2023-07-13T14:17:56;21.30;99.90
49829;DHT22;35723;51.194;5.112;2023-07-13T14:20:24;21.30;99.90
49829;DHT22;35723;51.194;5.112;2023-07-13T14:22:51;21.40;99.90
49829;DHT22;35723;51.194;5.112;2023-07-13T14:25:19;21.40;99.90
49829;DHT22;35723;51.194;5.112;2023-07-13T14:27:48;21.50;99.90
49829;DHT22;35723;51.194;5.112;2023-07-13T14:30:16;21.50;99.90
49829;DHT22;35723;51.194;5.112;2023-07-13T14:32:42;21.50;99.90
49829;DHT22;35723;51.194;5.112;2023-07-13T14:35:12;21.50;99.90
49829;DHT22;35723;51.194;5.112;2023-07-13T14:37:40;21.50;99.90
49829;DHT22;35723;51.194;5.112;2023-07-13T14:40:17;21.60;99.90
49829;DHT22;35723;51.194;5.112;2023-07-13T14:42:43;21.60;99.90
49829;DHT22;35723;51.194;5.112;2023-07-13T14:45:17;21.50;99.90
49829;DHT22;35723;51.194;5.112;2023-07-13T14:47:44;21.60;99.90
49829;DHT22;35723;51.194;5.112;2023-07-13T14:50:23;21.70;99.90
49829;DHT22;35723;51.194;5.112;2023-07-13T14:52:50;21.80;99.90
49829;DHT22;35723;51.194;5.112;2023-07-13T14:55:18;21.90;99.90
49829;DHT22;35723;51.194;5.112;2023-07-13T14:57:44;22.00;99.90
49829;DHT22;35723;51.194;5.112;2023-07-13T15:00:15;22.00;99.90
49829;DHT22;35723;51.194;5.112;2023-07-13T15:02:43;22.20;99.90
49829;DHT22;35723;51.194;5.112;2023-07-13T15:05:17;22.20;99.90
49829;DHT22;35723;51.194;5.112;2023-07-13T15:07:44;22.30;99.90
49829;DHT22;35723;51.194;5.112;2023-07-13T15:10:21;22.30;99.90
49829;DHT22;35723;51.194;5.112;2023-07-13T15:12:47;22.40;99.90
49829;DHT22;35723;51.194;5.112;2023-07-13T15:15:13;22.40;99.90
49829;DHT22;35723;51.194;5.112;2023-07-13T15:17:44;22.60;99.90
49829;DHT22;35723;51.194;5.112;2023-07-13T15:22:45;22.70;99.90
49829;DHT22;35723;51.194;5.112;2023-07-13T15:25:15;22.70;99.90
49829;DHT22;35723;51.194;5.112;2023-07-13T15:27:41;22.70;99.90
49829;DHT22;35723;51.194;5.112;2023-07-13T15:30:07;22.80;99.90
49829;DHT22;35723;51.194;5.112;2023-07-13T15:32:34;22.80;99.90
49829;DHT22;35723;51.194;5.112;2023-07-13T15:35:00;22.80;99.90
49829;DHT22;35723;51.194;5.112;2023-07-13T15:37:25;22.80;99.90
49829;DHT22;35723;51.194;5.112;2023-07-13T15:39:51;22.90;99.90
49829;DHT22;35723;51.194;5.112;2023-07-13T15:42:19;22.90;99.90
49829;DHT22;35723;51.194;5.112;2023-07-13T15:44:45;23.00;99.90
49829;DHT22;35723;51.194;5.112;2023-07-13T15:47:13;23.00;99.90
49829;DHT22;35723;51.194;5.112;2023-07-13T15:49:40;23.00;99.90
49829;DHT22;35723;51.194;5.112;2023-07-13T15:52:13;23.00;99.90
49829;DHT22;35723;51.194;5.112;2023-07-13T15:54:41;23.10;99.90
49829;DHT22;35723;51.194;5.112;2023-07-13T15:57:09;23.10;99.90
49829;DHT22;35723;51.194;5.112;2023-07-13T15:59:36;23.10;99.90
49829;DHT22;35723;51.194;5.112;2023-07-13T16:02:16;23.20;99.90
49829;DHT22;35723;51.194;5.112;2023-07-13T16:04:42;23.20;99.90
49829;DHT22;35723;51.194;5.112;2023-07-13T16:07:10;23.20;99.90
49829;DHT22;35723;51.194;5.112;2023-07-13T16:09:36;23.20;99.90
49829;DHT22;35723;51.194;5.112;2023-07-13T16:12:11;23.20;99.90